createdAt,value
2023-04-16T00:02:05.611Z,9.27
2023-04-16T00:04:34.728Z,9.17
2023-04-16T00:07:03.492Z,9.15
2023-04-16T00:09:32.271Z,9.19
2023-04-16T00:12:01.828Z,9.28
2023-04-16T00:14:30.847Z,9.35
2023-04-16T00:16:59.738Z,9.37
2023-04-16T00:19:32.007Z,9.36
2023-04-16T00:22:01.151Z,9.34
2023-04-16T00:24:30.185Z,9.30
2023-04-16T00:26:58.753Z,9.25
2023-04-16T00:29:29.478Z,9.19
2023-04-16T00:31:58.670Z,9.14
2023-04-16T00:34:27.271Z,9.11
2023-04-16T00:36:56.087Z,9.10
2023-04-16T00:39:24.985Z,9.08
2023-04-16T00:41:54.045Z,9.04
2023-04-16T00:44:22.928Z,9.01
2023-04-16T00:46:52.135Z,8.99
2023-04-16T00:49:21.555Z,8.96
2023-04-16T00:51:51.185Z,8.92
2023-04-16T00:54:20.277Z,8.87
2023-04-16T00:56:49.781Z,8.82
2023-04-16T00:59:18.825Z,8.78
2023-04-16T01:01:47.709Z,8.78
2023-04-16T01:04:16.803Z,8.78
2023-04-16T01:06:45.709Z,8.77
2023-04-16T01:09:16.119Z,8.77
2023-04-16T01:11:44.999Z,8.75
2023-04-16T01:14:13.801Z,8.73
2023-04-16T01:16:42.631Z,8.70
2023-04-16T01:19:11.668Z,8.69
2023-04-16T01:21:40.723Z,8.68
2023-04-16T01:24:09.750Z,8.68
2023-04-16T01:26:38.531Z,8.66
2023-04-16T01:29:07.845Z,8.63
2023-04-16T01:31:37.078Z,8.63
2023-04-16T01:34:11.012Z,8.61
2023-04-16T01:36:39.940Z,8.58
2023-04-16T01:39:14.070Z,8.56
2023-04-16T01:41:43.885Z,8.54
2023-04-16T01:44:12.314Z,8.51
2023-04-16T01:46:41.517Z,8.48
2023-04-16T01:49:10.775Z,8.45
2023-04-16T01:51:39.393Z,8.41
2023-04-16T01:54:08.459Z,8.35
2023-04-16T01:56:37.436Z,8.29
2023-04-16T01:59:05.887Z,8.20
2023-04-16T02:01:39.533Z,8.14
2023-04-16T02:04:08.579Z,8.07
2023-04-16T02:06:37.086Z,8.03
2023-04-16T02:09:06.793Z,8.01
2023-04-16T02:11:35.662Z,8.02
2023-04-16T02:14:04.102Z,8.03
2023-04-16T02:16:33.523Z,8.04
2023-04-16T02:19:11.720Z,8.06
2023-04-16T02:21:42.461Z,8.07
2023-04-16T02:24:11.073Z,8.05
2023-04-16T02:26:39.929Z,8.02
2023-04-16T02:29:11.953Z,8.03
2023-04-16T02:31:44.886Z,8.02
2023-04-16T02:34:15.091Z,8.02
2023-04-16T02:36:43.729Z,8.03
2023-04-16T02:39:12.514Z,8.05
2023-04-16T02:41:41.890Z,8.06
2023-04-16T02:44:10.350Z,8.04
2023-04-16T02:46:38.936Z,8.01
2023-04-16T02:49:08.354Z,7.97
2023-04-16T02:51:37.214Z,7.93
2023-04-16T02:54:06.183Z,7.88
2023-04-16T02:56:35.530Z,7.85
2023-04-16T02:59:04.099Z,7.83
2023-04-16T03:01:33.100Z,7.79
2023-04-16T03:04:02.269Z,7.79
2023-04-16T03:06:31.689Z,7.81
2023-04-16T03:09:00.460Z,7.79
2023-04-16T03:11:29.735Z,7.79
2023-04-16T03:13:58.221Z,7.77
2023-04-16T03:16:27.313Z,7.75
2023-04-16T03:18:56.376Z,7.78
2023-04-16T03:21:24.829Z,7.81
2023-04-16T03:23:54.243Z,7.85
2023-04-16T03:26:24.186Z,7.93
2023-04-16T03:28:52.846Z,8.01
2023-04-16T03:31:25.100Z,8.08
2023-04-16T03:33:54.431Z,8.16
2023-04-16T03:36:23.697Z,8.19
2023-04-16T03:38:52.372Z,8.11
2023-04-16T03:41:21.440Z,7.98
2023-04-16T03:43:50.297Z,7.83
2023-04-16T03:46:19.110Z,7.71
2023-04-16T03:48:47.882Z,7.63
2023-04-16T03:51:17.248Z,7.59
2023-04-16T03:53:46.530Z,7.55
2023-04-16T03:56:15.673Z,7.50
2023-04-16T03:58:44.501Z,7.51
2023-04-16T04:01:13.274Z,7.55
2023-04-16T04:03:42.338Z,7.59
2023-04-16T04:06:12.202Z,7.60
2023-04-16T04:08:40.907Z,7.56
2023-04-16T04:11:09.369Z,7.49
2023-04-16T04:13:38.806Z,7.42
2023-04-16T04:16:08.022Z,7.38
2023-04-16T04:18:36.536Z,7.35
2023-04-16T04:21:09.212Z,7.36
2023-04-16T04:23:38.600Z,7.39
2023-04-16T04:26:07.864Z,7.46
2023-04-16T04:28:37.325Z,7.54
2023-04-16T04:31:06.117Z,7.61
2023-04-16T04:33:35.325Z,7.67
2023-04-16T04:36:04.213Z,7.70
2023-04-16T04:38:34.396Z,7.70
2023-04-16T04:41:03.075Z,7.72
2023-04-16T04:43:34.941Z,7.76
2023-04-16T04:46:04.254Z,7.82
2023-04-16T04:48:33.021Z,7.86
2023-04-16T04:51:04.236Z,7.90
2023-04-16T04:53:35.007Z,7.96
2023-04-16T04:56:12.137Z,8.04
2023-04-16T04:58:42.822Z,8.14
2023-04-16T05:01:11.789Z,8.18
2023-04-16T05:03:40.399Z,8.17
2023-04-16T05:06:09.669Z,8.17
2023-04-16T05:08:38.652Z,8.17
2023-04-16T05:11:07.098Z,8.16
2023-04-16T05:13:35.923Z,8.15
2023-04-16T05:16:05.436Z,8.17
2023-04-16T05:18:33.874Z,8.21
2023-04-16T05:21:02.582Z,8.34
2023-04-16T05:23:32.166Z,8.48
2023-04-16T05:26:00.999Z,8.66
2023-04-16T05:28:30.991Z,8.86
2023-04-16T05:30:59.815Z,9.18
2023-04-16T05:33:28.466Z,10.06
2023-04-16T05:35:57.249Z,10.96
2023-04-16T05:38:25.896Z,11.18
2023-04-16T05:40:54.778Z,11.28
2023-04-16T05:43:23.473Z,11.37
2023-04-16T05:45:52.147Z,11.56
2023-04-16T05:48:20.736Z,11.79
2023-04-16T05:50:50.210Z,12.11
2023-04-16T05:53:19.862Z,12.64
2023-04-16T05:55:48.717Z,13.50
2023-04-16T05:58:17.604Z,14.51
2023-04-16T06:00:46.300Z,15.27
2023-04-16T06:03:15.292Z,15.58
2023-04-16T06:05:44.854Z,15.58
2023-04-16T06:08:13.693Z,15.57
2023-04-16T06:10:42.399Z,15.55
2023-04-16T06:13:11.720Z,15.58
2023-04-16T06:15:40.376Z,15.56
2023-04-16T06:18:09.069Z,15.52
2023-04-16T06:20:38.400Z,15.68
2023-04-16T06:23:06.935Z,16.01
2023-04-16T06:25:35.393Z,16.40
2023-04-16T06:28:04.595Z,16.80
2023-04-16T06:30:34.082Z,17.23
2023-04-16T06:33:02.677Z,17.37
2023-04-16T06:35:31.760Z,17.38
2023-04-16T06:38:00.715Z,17.32
2023-04-16T06:40:29.276Z,17.56
2023-04-16T06:42:58.457Z,18.13
2023-04-16T06:45:27.473Z,18.65
2023-04-16T06:47:56.102Z,18.81
2023-04-16T06:50:27.109Z,19.10
2023-04-16T06:52:56.710Z,19.86
2023-04-16T06:55:25.130Z,20.74
2023-04-16T06:57:53.994Z,21.19
2023-04-16T07:00:23.100Z,21.34
2023-04-16T07:02:52.054Z,21.87
2023-04-16T07:05:21.528Z,22.48
2023-04-16T07:07:50.462Z,22.90
2023-04-16T07:10:19.170Z,23.34
2023-04-16T07:12:47.967Z,23.76
2023-04-16T07:15:17.041Z,24.12
2023-04-16T07:17:45.828Z,24.42
2023-04-16T07:20:14.773Z,24.68
2023-04-16T07:22:44.214Z,24.91
2023-04-16T07:25:12.873Z,24.70
2023-04-16T07:27:41.598Z,23.90
2023-04-16T07:30:11.157Z,22.90
2023-04-16T07:32:39.777Z,22.08
2023-04-16T07:35:09.021Z,21.28
2023-04-16T07:37:37.774Z,20.72
2023-04-16T07:40:07.137Z,20.24
2023-04-16T07:42:36.205Z,19.60
2023-04-16T07:45:05.491Z,19.06
2023-04-16T07:47:34.121Z,18.74
2023-04-16T07:50:03.103Z,18.53
2023-04-16T07:52:32.363Z,18.59
2023-04-16T07:55:01.816Z,18.63
2023-04-16T07:57:30.957Z,18.95
2023-04-16T07:59:59.868Z,19.41
2023-04-16T08:02:28.666Z,19.66
2023-04-16T08:04:58.007Z,19.68
2023-04-16T08:07:27.227Z,19.65
2023-04-16T08:09:55.736Z,19.78
2023-04-16T08:12:24.960Z,19.78
2023-04-16T08:14:53.737Z,19.82
2023-04-16T08:17:22.531Z,20.01
2023-04-16T08:19:51.750Z,20.34
2023-04-16T08:22:20.589Z,20.56
2023-04-16T08:24:49.078Z,20.70
2023-04-16T08:27:19.945Z,20.83
2023-04-16T08:29:49.424Z,20.66
2023-04-16T08:32:17.996Z,20.25
2023-04-16T08:34:46.986Z,19.90
2023-04-16T08:37:15.746Z,19.46
2023-04-16T08:39:44.679Z,18.89
2023-04-16T08:42:28.731Z,18.40
2023-04-16T08:45:09.253Z,17.87
2023-04-16T08:47:39.278Z,17.52
2023-04-16T08:50:11.523Z,17.22
2023-04-16T08:52:47.703Z,17.06
2023-04-16T08:55:19.081Z,16.96
2023-04-16T08:57:51.554Z,16.84
2023-04-16T09:00:21.495Z,16.78
2023-04-16T09:02:51.789Z,16.73
2023-04-16T09:05:23.670Z,16.82
2023-04-16T09:07:54.800Z,17.02
2023-04-16T09:10:24.078Z,17.22
2023-04-16T09:12:52.908Z,17.39
2023-04-16T09:15:22.812Z,17.64
2023-04-16T09:17:51.913Z,17.89
2023-04-16T09:20:21.336Z,18.10
2023-04-16T09:22:50.591Z,18.42
2023-04-16T09:25:22.797Z,18.53
2023-04-16T09:27:51.721Z,18.85
2023-04-16T09:30:25.029Z,19.10
2023-04-16T09:33:13.792Z,19.42
2023-04-16T09:35:54.929Z,19.38
2023-04-16T09:38:26.820Z,19.00
2023-04-16T09:41:08.739Z,18.90
2023-04-16T09:43:37.751Z,19.21
2023-04-16T09:46:08.145Z,19.56
2023-04-16T09:48:41.189Z,19.88
2023-04-16T09:51:23.587Z,20.11
2023-04-16T09:53:54.340Z,20.16
2023-04-16T09:56:30.657Z,20.15
2023-04-16T09:59:02.949Z,20.14
2023-04-16T10:01:31.600Z,19.86
2023-04-16T10:04:01.905Z,19.43
2023-04-16T10:06:31.821Z,19.28
2023-04-16T10:09:17.197Z,19.20
2023-04-16T10:11:46.622Z,19.16
2023-04-16T10:14:15.071Z,18.98
2023-04-16T10:16:44.344Z,18.65
2023-04-16T10:19:14.407Z,18.41
2023-04-16T10:21:43.309Z,18.29
2023-04-16T10:24:13.047Z,18.16
2023-04-16T10:26:43.018Z,18.01
2023-04-16T10:29:15.221Z,17.94
2023-04-16T10:31:45.506Z,17.80
2023-04-16T10:34:15.298Z,17.44
2023-04-16T10:36:43.770Z,17.21
2023-04-16T10:39:16.822Z,17.20
2023-04-16T10:41:45.824Z,16.99
2023-04-16T10:44:18.362Z,16.78
2023-04-16T10:47:00.561Z,16.62
2023-04-16T10:49:29.872Z,16.69
2023-04-16T10:52:08.493Z,16.85
2023-04-16T10:54:38.089Z,17.04
2023-04-16T10:57:09.311Z,17.19
2023-04-16T10:59:40.388Z,17.21
2023-04-16T11:02:14.085Z,17.11
2023-04-16T11:04:47.518Z,17.08
2023-04-16T11:07:20.096Z,17.17
2023-04-16T11:10:00.227Z,17.22
2023-04-16T11:12:46.743Z,17.23
2023-04-16T11:15:20.117Z,17.27
2023-04-16T11:17:52.927Z,17.22
2023-04-16T11:20:26.690Z,17.03
2023-04-16T11:22:57.204Z,16.83
2023-04-16T11:25:30.131Z,16.86
2023-04-16T11:28:01.988Z,16.89
2023-04-16T11:30:35.811Z,16.78
2023-04-16T11:33:12.109Z,16.61
2023-04-16T11:35:41.776Z,16.45
2023-04-16T11:38:10.294Z,16.31
2023-04-16T11:40:38.779Z,16.30
2023-04-16T11:43:16.121Z,16.29
2023-04-16T11:46:05.560Z,16.25
2023-04-16T11:48:58.691Z,16.11
2023-04-16T11:51:27.565Z,15.99
2023-04-16T11:53:56.481Z,15.91
2023-04-16T11:56:30.251Z,15.87
2023-04-16T11:59:14.420Z,15.77
2023-04-16T12:01:48.013Z,15.70
2023-04-16T12:04:20.125Z,15.74
2023-04-16T12:07:12.416Z,15.80
2023-04-16T12:09:43.248Z,15.79
2023-04-16T12:12:32.427Z,15.84
2023-04-16T12:15:05.579Z,15.90
2023-04-16T12:17:36.171Z,16.00
2023-04-16T12:20:10.030Z,16.13
2023-04-16T12:22:41.816Z,16.24
2023-04-16T12:25:16.292Z,16.31
2023-04-16T12:27:53.955Z,16.38
2023-04-16T12:30:26.353Z,16.51
2023-04-16T12:33:14.888Z,16.53
2023-04-16T12:35:44.332Z,16.55
2023-04-16T12:38:15.707Z,16.54
2023-04-16T12:40:44.268Z,16.53
2023-04-16T12:43:13.396Z,16.48
2023-04-16T12:45:42.899Z,16.40
2023-04-16T12:48:11.849Z,16.34
2023-04-16T12:50:40.738Z,16.39
2023-04-16T12:53:09.249Z,16.50
2023-04-16T12:55:38.204Z,16.60
2023-04-16T12:58:07.105Z,16.62
2023-04-16T13:00:36.434Z,16.57
2023-04-16T13:03:05.194Z,16.62
2023-04-16T13:05:34.731Z,16.73
2023-04-16T13:08:03.324Z,16.80
2023-04-16T13:10:32.077Z,16.84
2023-04-16T13:13:00.935Z,16.86
2023-04-16T13:15:29.566Z,16.96
2023-04-16T13:17:58.469Z,17.09
2023-04-16T13:20:27.401Z,17.18
2023-04-16T13:22:56.477Z,17.19
2023-04-16T13:25:25.310Z,16.98
2023-04-16T13:27:54.044Z,16.78
2023-04-16T13:30:22.736Z,16.71
2023-04-16T13:32:51.382Z,16.61
2023-04-16T13:35:20.476Z,16.52
2023-04-16T13:37:49.331Z,16.42
2023-04-16T13:40:18.087Z,16.33
2023-04-16T13:42:47.301Z,16.27
2023-04-16T13:45:16.300Z,16.21
2023-04-16T13:47:44.767Z,16.12
2023-04-16T13:50:13.963Z,16.08
2023-04-16T13:52:42.524Z,16.05
2023-04-16T13:55:14.188Z,16.05
2023-04-16T13:57:43.173Z,16.04
2023-04-16T14:00:13.349Z,15.95
2023-04-16T14:02:43.246Z,15.84
2023-04-16T14:05:12.470Z,15.73
2023-04-16T14:07:41.640Z,15.65
2023-04-16T14:10:10.637Z,15.67
2023-04-16T14:12:39.827Z,15.65
2023-04-16T14:15:10.947Z,15.62
2023-04-16T14:17:39.457Z,15.63
2023-04-16T14:20:09.520Z,15.64
2023-04-16T14:22:38.577Z,15.60
2023-04-16T14:25:07.542Z,15.56
2023-04-16T14:27:37.445Z,15.58
2023-04-16T14:30:07.524Z,15.58
2023-04-16T14:32:36.717Z,15.53
2023-04-16T14:35:06.102Z,15.45
2023-04-16T14:37:36.956Z,15.38
2023-04-16T14:40:09.114Z,15.34
2023-04-16T14:42:39.237Z,15.34
2023-04-16T14:45:08.451Z,15.35
2023-04-16T14:47:38.518Z,15.33
2023-04-16T14:50:08.072Z,15.34
2023-04-16T14:52:36.672Z,15.39
2023-04-16T14:55:06.090Z,15.41
2023-04-16T14:57:35.990Z,15.42
2023-04-16T15:00:10.325Z,15.45
2023-04-16T15:02:39.961Z,15.45
2023-04-16T15:05:10.841Z,15.47
2023-04-16T15:07:39.967Z,15.49
2023-04-16T15:10:10.262Z,15.49
2023-04-16T15:12:39.462Z,15.47
2023-04-16T15:15:09.302Z,15.41
2023-04-16T15:17:38.185Z,15.25
2023-04-16T15:20:08.543Z,15.00
2023-04-16T15:22:39.017Z,14.77
2023-04-16T15:25:07.795Z,14.58
2023-04-16T15:27:36.983Z,14.41
2023-04-16T15:30:07.297Z,14.30
2023-04-16T15:32:35.936Z,14.17
2023-04-16T15:35:05.191Z,14.00
2023-04-16T15:37:34.122Z,13.82
2023-04-16T15:40:05.752Z,13.74
2023-04-16T15:42:35.085Z,13.65
2023-04-16T15:45:04.034Z,13.52
2023-04-16T15:47:32.672Z,13.41
2023-04-16T15:50:01.444Z,13.34
2023-04-16T15:52:31.004Z,13.27
2023-04-16T15:55:01.699Z,13.22
2023-04-16T15:57:32.108Z,13.22
2023-04-16T16:00:06.492Z,13.26
2023-04-16T16:02:36.644Z,13.28
2023-04-16T16:05:07.904Z,13.28
2023-04-16T16:07:37.188Z,13.23
2023-04-16T16:10:07.216Z,13.18
2023-04-16T16:12:36.035Z,13.15
2023-04-16T16:15:06.738Z,13.15
2023-04-16T16:17:36.657Z,13.13
2023-04-16T16:20:10.058Z,13.09
2023-04-16T16:22:39.502Z,13.02
2023-04-16T16:25:08.573Z,12.98
2023-04-16T16:27:37.117Z,12.94
2023-04-16T16:30:07.980Z,12.88
2023-04-16T16:32:37.882Z,12.86
2023-04-16T16:35:09.469Z,12.83
2023-04-16T16:37:38.854Z,12.82
2023-04-16T16:40:09.108Z,12.82
2023-04-16T16:42:37.883Z,12.82
2023-04-16T16:45:07.061Z,12.84
2023-04-16T16:47:36.141Z,12.88
2023-04-16T16:50:06.078Z,12.90
2023-04-16T16:52:34.524Z,12.88
2023-04-16T16:55:04.301Z,12.88
2023-04-16T16:57:33.044Z,12.88
2023-04-16T17:00:01.542Z,12.88
2023-04-16T17:02:30.653Z,12.87
2023-04-16T17:05:09.521Z,12.87
2023-04-16T17:07:39.359Z,12.90
2023-04-16T17:10:09.194Z,12.91
2023-04-16T17:12:37.893Z,12.89
2023-04-16T17:15:06.862Z,12.82
2023-04-16T17:17:35.629Z,12.76
2023-04-16T17:20:09.357Z,12.72
2023-04-16T17:22:40.075Z,12.68
2023-04-16T17:25:08.956Z,12.65
2023-04-16T17:27:37.725Z,12.62
2023-04-16T17:30:08.036Z,12.58
2023-04-16T17:32:37.072Z,12.57
2023-04-16T17:35:07.204Z,12.54
2023-04-16T17:37:36.097Z,12.47
2023-04-16T17:40:07.858Z,12.42
2023-04-16T17:42:37.470Z,12.39
2023-04-16T17:45:07.077Z,12.31
2023-04-16T17:47:36.607Z,12.25
2023-04-16T17:50:06.500Z,12.23
2023-04-16T17:52:35.183Z,12.21
2023-04-16T17:55:05.266Z,12.23
2023-04-16T17:57:34.163Z,12.25
2023-04-16T18:00:05.742Z,12.27
2023-04-16T18:02:43.653Z,12.27
2023-04-16T18:05:12.770Z,12.26
2023-04-16T18:07:41.529Z,12.24
2023-04-16T18:10:10.658Z,12.23
2023-04-16T18:12:39.467Z,12.23
2023-04-16T18:15:09.368Z,12.21
2023-04-16T18:17:38.377Z,12.18
2023-04-16T18:20:09.233Z,12.10
2023-04-16T18:22:38.099Z,11.99
2023-04-16T18:25:07.888Z,11.89
2023-04-16T18:27:36.523Z,11.81
2023-04-16T18:30:06.323Z,11.76
2023-04-16T18:32:37.313Z,11.72
2023-04-16T18:35:07.869Z,11.73
2023-04-16T18:37:37.237Z,11.75
2023-04-16T18:40:07.422Z,11.76
2023-04-16T18:42:36.052Z,11.75
2023-04-16T18:45:06.798Z,11.74
2023-04-16T18:47:35.369Z,11.70
2023-04-16T18:50:04.090Z,11.66
2023-04-16T18:52:33.167Z,11.56
2023-04-16T18:55:01.668Z,11.50
2023-04-16T18:57:30.889Z,11.52
2023-04-16T18:59:59.845Z,11.58
2023-04-16T19:02:28.412Z,11.63
2023-04-16T19:04:57.591Z,11.64
2023-04-16T19:07:26.618Z,11.64
2023-04-16T19:09:55.081Z,11.57
2023-04-16T19:12:23.975Z,11.48
2023-04-16T19:14:53.202Z,11.43
2023-04-16T19:17:21.706Z,11.38
2023-04-16T19:19:50.263Z,11.34
2023-04-16T19:22:19.376Z,11.32
2023-04-16T19:24:47.808Z,11.36
2023-04-16T19:27:16.439Z,11.35
2023-04-16T19:29:47.378Z,11.34
2023-04-16T19:32:15.940Z,11.34
2023-04-16T19:34:44.621Z,11.31
2023-04-16T19:37:13.756Z,11.30
2023-04-16T19:39:42.329Z,11.31
2023-04-16T19:42:11.161Z,11.30
2023-04-16T19:44:40.303Z,11.23
2023-04-16T19:47:08.774Z,11.16
2023-04-16T19:49:37.510Z,11.10
2023-04-16T19:52:06.459Z,11.07
2023-04-16T19:54:37.535Z,11.08
2023-04-16T19:57:06.359Z,11.09
2023-04-16T19:59:35.601Z,11.09
2023-04-16T20:02:04.209Z,11.09
2023-04-16T20:04:34.278Z,11.13
2023-04-16T20:07:03.307Z,11.19
2023-04-16T20:09:31.760Z,11.25
2023-04-16T20:12:01.067Z,11.28
2023-04-16T20:14:30.785Z,11.29
2023-04-16T20:16:59.389Z,11.28
2023-04-16T20:19:32.166Z,11.25
2023-04-16T20:22:00.799Z,11.20
2023-04-16T20:24:31.318Z,11.17
2023-04-16T20:27:00.498Z,11.14
2023-04-16T20:29:29.248Z,11.12
2023-04-16T20:31:58.065Z,11.13
2023-04-16T20:34:28.367Z,11.15
2023-04-16T20:36:58.349Z,11.17
2023-04-16T20:39:27.682Z,11.19
2023-04-16T20:41:59.368Z,11.21
2023-04-16T20:44:33.579Z,11.23
2023-04-16T20:47:02.881Z,11.23
2023-04-16T20:49:34.950Z,11.21
2023-04-16T20:52:04.406Z,11.19
2023-04-16T20:54:32.980Z,11.20
2023-04-16T20:57:02.273Z,11.16
2023-04-16T20:59:32.649Z,11.13
2023-04-16T21:02:01.805Z,11.14
2023-04-16T21:04:30.339Z,11.15
2023-04-16T21:06:59.391Z,11.11
2023-04-16T21:09:27.930Z,11.06
2023-04-16T21:11:56.865Z,11.00
2023-04-16T21:14:25.841Z,10.95
2023-04-16T21:16:55.159Z,10.88
2023-04-16T21:19:23.619Z,10.86
2023-04-16T21:21:52.302Z,10.89
2023-04-16T21:24:21.239Z,10.91
2023-04-16T21:26:49.673Z,10.93
2023-04-16T21:29:18.171Z,10.93
2023-04-16T21:31:47.485Z,10.91
2023-04-16T21:34:15.992Z,10.87
2023-04-16T21:36:44.943Z,10.81
2023-04-16T21:39:15.220Z,10.78
2023-04-16T21:41:43.767Z,10.73
2023-04-16T21:44:12.602Z,10.68
2023-04-16T21:46:41.824Z,10.63
2023-04-16T21:49:10.571Z,10.61
2023-04-16T21:51:40.773Z,10.61
2023-04-16T21:54:09.757Z,10.59
2023-04-16T21:56:38.262Z,10.55
2023-04-16T21:59:06.988Z,10.48
2023-04-16T22:01:36.161Z,10.41
2023-04-16T22:04:05.340Z,10.34
2023-04-16T22:06:34.022Z,10.30
2023-04-16T22:09:03.253Z,10.23
2023-04-16T22:11:32.063Z,10.22
2023-04-16T22:14:00.949Z,10.23
2023-04-16T22:16:29.873Z,10.23
2023-04-16T22:18:58.784Z,10.22
2023-04-16T22:21:28.132Z,10.20
2023-04-16T22:23:57.372Z,10.16
2023-04-16T22:26:26.459Z,10.10
2023-04-16T22:28:55.498Z,10.02
2023-04-16T22:31:24.457Z,9.99
2023-04-16T22:33:53.241Z,9.93
2023-04-16T22:36:22.545Z,9.90
2023-04-16T22:38:51.208Z,9.91
2023-04-16T22:41:19.624Z,9.91
2023-04-16T22:43:50.086Z,9.89
2023-04-16T22:46:22.555Z,9.85
2023-04-16T22:48:52.504Z,9.84
2023-04-16T22:51:24.664Z,9.82
2023-04-16T22:53:54.286Z,9.79
2023-04-16T22:56:22.785Z,9.76
2023-04-16T22:58:51.337Z,9.75
2023-04-16T23:01:20.682Z,9.72
2023-04-16T23:03:49.433Z,9.68
2023-04-16T23:06:17.963Z,9.62
2023-04-16T23:08:47.111Z,9.59
2023-04-16T23:11:15.882Z,9.61
2023-04-16T23:13:44.553Z,9.59
2023-04-16T23:16:14.020Z,9.52
2023-04-16T23:18:42.597Z,9.45
2023-04-16T23:21:11.329Z,9.41
2023-04-16T23:23:40.866Z,9.40
2023-04-16T23:26:09.834Z,9.40
2023-04-16T23:28:38.291Z,9.39
2023-04-16T23:31:08.069Z,9.38
2023-04-16T23:33:36.539Z,9.38
2023-04-16T23:36:05.383Z,9.33
2023-04-16T23:38:34.842Z,9.25
2023-04-16T23:41:03.261Z,9.17
2023-04-16T23:43:31.708Z,9.10
2023-04-16T23:46:02.776Z,9.06
2023-04-16T23:48:31.253Z,9.02
2023-04-16T23:50:59.724Z,9.01
2023-04-16T23:53:28.896Z,8.98
2023-04-16T23:55:57.368Z,8.97
2023-04-16T23:58:26.930Z,8.98
